createdAt,value
2023-01-17T00:02:40.772Z,96486.91
2023-01-17T00:08:02.169Z,96480.00
2023-01-17T00:13:05.566Z,96477.44
2023-01-17T00:18:08.305Z,96488.75
2023-01-17T00:23:33.939Z,96491.38
2023-01-17T00:28:36.993Z,96483.59
2023-01-17T00:33:38.987Z,96492.28
2023-01-17T00:38:42.061Z,96489.75
2023-01-17T00:44:02.290Z,96500.19
2023-01-17T00:49:25.831Z,96507.19
2023-01-17T00:54:50.814Z,96516.75
2023-01-17T01:00:10.973Z,96517.63
2023-01-17T01:05:32.419Z,96535.03
2023-01-17T01:10:54.306Z,96550.63
2023-01-17T01:16:14.486Z,96550.59
2023-01-17T01:21:34.821Z,96550.53
2023-01-17T01:26:56.266Z,96553.09
2023-01-17T01:32:16.704Z,96560.88
2023-01-17T01:37:19.493Z,96549.63
2023-01-17T01:42:23.811Z,96553.13
2023-01-17T01:47:28.504Z,96551.28
2023-01-17T01:52:32.825Z,96552.16
2023-01-17T01:57:40.771Z,96559.78
2023-01-17T02:02:44.547Z,96556.31
2023-01-17T02:07:52.708Z,96567.56
2023-01-17T02:12:57.231Z,96560.38
2023-01-17T02:18:05.892Z,96562.19
2023-01-17T02:23:29.107Z,96551.72
2023-01-17T02:28:44.375Z,96545.72
2023-01-17T02:33:53.186Z,96447.03
2023-01-17T02:39:01.566Z,96454.88
2023-01-17T02:44:05.277Z,96447.09
2023-01-17T02:49:09.401Z,96444.50
2023-01-17T02:54:25.188Z,96414.16
2023-01-17T02:59:37.928Z,96413.31
2023-01-17T03:04:48.106Z,96411.56
2023-01-17T03:09:56.209Z,96405.50
2023-01-17T03:14:58.975Z,96416.69
2023-01-17T03:20:03.177Z,96436.63
2023-01-17T03:25:06.624Z,96430.44
2023-01-17T03:30:10.447Z,96439.84
2023-01-17T03:35:14.852Z,96444.25
2023-01-17T03:40:18.232Z,96452.84
2023-01-17T03:45:20.998Z,96454.56
2023-01-17T03:50:25.320Z,96464.34
2023-01-17T03:55:28.085Z,96493.94
2023-01-17T04:00:30.896Z,96506.31
2023-01-17T04:05:35.288Z,96494.44
2023-01-17T04:10:38.078Z,96508.69
2023-01-17T04:15:40.845Z,96514.44
2023-01-17T04:20:45.239Z,96515.97
2023-01-17T04:25:47.998Z,96512.50
2023-01-17T04:30:50.815Z,96520.13
2023-01-17T04:35:55.115Z,96505.34
2023-01-17T04:40:58.271Z,96508.03
2023-01-17T04:46:01.260Z,96489.03
2023-01-17T04:51:07.034Z,96495.94
2023-01-17T04:56:09.824Z,96487.44
2023-01-17T05:01:12.718Z,96496.84
2023-01-17T05:06:16.917Z,96490.97
2023-01-17T05:11:20.021Z,96492.59
2023-01-17T05:16:22.681Z,96483.22
2023-01-17T05:21:26.718Z,96479.59
2023-01-17T05:26:29.434Z,96477.75
2023-01-17T05:31:32.198Z,96476.16
2023-01-17T05:36:36.315Z,96477.84
2023-01-17T05:41:39.025Z,96480.66
2023-01-17T05:46:41.927Z,96486.66
2023-01-17T05:51:46.041Z,96492.75
2023-01-17T05:56:48.776Z,96493.63
2023-01-17T06:01:51.773Z,96485.84
2023-01-17T06:06:55.969Z,96485.09
2023-01-17T06:11:58.697Z,96487.69
2023-01-17T06:17:01.441Z,96490.41
2023-01-17T06:22:06.306Z,96469.75
2023-01-17T06:27:09.902Z,96475.66
2023-01-17T06:32:14.029Z,96471.41
2023-01-17T06:37:18.145Z,96477.41
2023-01-17T06:42:22.277Z,96470.56
2023-01-17T06:47:25.133Z,96466.28
2023-01-17T06:52:29.217Z,96467.16
2023-01-17T06:57:31.948Z,96471.53
2023-01-17T07:02:34.731Z,96466.50
2023-01-17T07:07:38.912Z,96468.22
2023-01-17T07:12:41.860Z,96473.50
2023-01-17T07:17:44.961Z,96469.25
2023-01-17T07:22:49.064Z,96445.84
2023-01-17T07:27:54.513Z,96422.50
2023-01-17T07:32:57.341Z,96432.94
2023-01-17T07:38:01.487Z,96437.25
2023-01-17T07:43:12.241Z,96434.44
2023-01-17T07:48:15.587Z,96427.94
2023-01-17T07:53:19.732Z,96457.09
2023-01-17T07:58:23.000Z,96438.16
2023-01-17T08:03:26.403Z,96443.63
2023-01-17T08:08:30.564Z,96453.00
2023-01-17T08:13:33.350Z,96446.91
2023-01-17T08:18:36.144Z,96440.78
2023-01-17T08:23:40.271Z,96448.47
2023-01-17T08:28:43.017Z,96437.38
2023-01-17T08:33:45.754Z,96450.25
2023-01-17T08:38:52.689Z,96444.47
2023-01-17T08:43:55.516Z,96446.00
2023-01-17T08:49:00.015Z,96438.41
2023-01-17T08:54:04.299Z,96448.88
2023-01-17T08:59:07.072Z,96456.63
2023-01-17T09:04:10.058Z,96448.03
2023-01-17T09:09:14.194Z,96456.69
2023-01-17T09:14:17.003Z,96467.84
2023-01-17T09:19:19.793Z,96460.13
2023-01-17T09:24:23.985Z,96468.75
2023-01-17T09:29:26.708Z,96476.72
2023-01-17T09:34:30.471Z,96471.66
2023-01-17T09:39:34.592Z,96465.16
2023-01-17T09:44:41.761Z,96464.44
2023-01-17T09:49:46.284Z,96482.66
2023-01-17T09:54:51.343Z,96505.03
2023-01-17T10:00:03.558Z,96525.25
2023-01-17T10:05:24.424Z,96549.06
2023-01-17T10:10:38.619Z,96583.59
2023-01-17T10:15:52.362Z,96595.03
2023-01-17T10:20:58.017Z,96621.91
2023-01-17T10:26:03.801Z,96628.97
2023-01-17T10:31:09.437Z,96656.66
2023-01-17T10:36:15.760Z,96674.09
2023-01-17T10:41:25.122Z,96677.47
2023-01-17T10:46:32.558Z,96698.63
2023-01-17T10:51:49.772Z,96731.00
2023-01-17T10:56:53.896Z,96762.31
2023-01-17T11:01:56.849Z,96786.19
2023-01-17T11:07:13.869Z,96809.25
2023-01-17T11:12:23.287Z,96829.91
2023-01-17T11:17:27.499Z,96845.88
2023-01-17T11:22:30.830Z,96876.28
2023-01-17T11:27:36.300Z,96897.47
2023-01-17T11:32:39.240Z,96922.69
2023-01-17T11:37:49.140Z,96942.91
2023-01-17T11:43:02.489Z,96964.59
2023-01-17T11:48:16.064Z,97004.78
2023-01-17T11:53:25.404Z,97038.34
2023-01-17T11:58:29.683Z,97067.69
2023-01-17T12:03:49.358Z,97067.75
2023-01-17T12:09:04.558Z,97082.91
2023-01-17T12:14:16.008Z,97099.84
2023-01-17T12:19:33.993Z,97190.84
2023-01-17T12:24:45.525Z,97197.03
2023-01-17T12:29:53.561Z,97200.38
2023-01-17T12:35:00.611Z,97218.94
2023-01-17T12:40:08.299Z,97218.63
2023-01-17T12:45:15.111Z,97229.34
2023-01-17T12:50:24.621Z,97244.97
2023-01-17T12:55:35.666Z,97250.88
2023-01-17T13:00:40.434Z,97275.59
2023-01-17T13:05:46.290Z,97285.56
2023-01-17T13:10:52.302Z,97293.06
2023-01-17T13:15:56.995Z,97309.28
2023-01-17T13:21:15.188Z,97341.03
2023-01-17T13:26:24.563Z,97350.38
2023-01-17T13:31:43.332Z,97371.63
2023-01-17T13:37:01.483Z,97386.47
2023-01-17T13:42:11.878Z,97402.50
2023-01-17T13:47:38.773Z,97412.13
2023-01-17T13:52:41.543Z,97414.75
2023-01-17T13:57:44.753Z,97425.16
2023-01-17T14:02:49.782Z,97429.09
2023-01-17T14:07:57.063Z,97440.50
2023-01-17T14:12:59.916Z,97469.78
2023-01-17T14:18:04.879Z,97475.06
2023-01-17T14:23:27.564Z,97477.66
2023-01-17T14:28:32.478Z,97483.38
2023-01-17T14:33:39.532Z,97487.63
2023-01-17T14:38:44.463Z,97498.44
2023-01-17T14:43:48.349Z,97494.41
2023-01-17T14:48:53.625Z,97492.72
2023-01-17T14:53:57.986Z,97509.53
2023-01-17T14:59:12.373Z,97508.63
2023-01-17T15:04:27.759Z,97523.16
2023-01-17T15:09:34.184Z,97527.34
2023-01-17T15:14:39.555Z,97532.25
2023-01-17T15:19:44.951Z,97526.06
2023-01-17T15:24:47.880Z,97518.84
2023-01-17T15:29:50.812Z,97531.50
2023-01-17T15:34:56.986Z,97525.97
2023-01-17T15:40:06.034Z,97530.03
2023-01-17T15:45:15.596Z,97527.81
2023-01-17T15:50:30.828Z,97526.81
2023-01-17T15:55:35.045Z,97541.38
2023-01-17T16:00:39.525Z,97549.66
2023-01-17T16:05:44.087Z,97556.19
2023-01-17T16:10:46.830Z,97550.97
2023-01-17T16:15:49.685Z,97550.84
2023-01-17T16:20:57.989Z,97552.44
2023-01-17T16:26:00.741Z,97547.28
2023-01-17T16:31:03.561Z,97556.31
2023-01-17T16:36:11.529Z,97552.34
2023-01-17T16:41:14.277Z,97547.31
2023-01-17T16:46:21.685Z,97546.94
2023-01-17T16:51:25.828Z,97553.38
2023-01-17T16:56:28.778Z,97551.16
2023-01-17T17:01:31.742Z,97557.97
2023-01-17T17:06:35.885Z,97549.06
2023-01-17T17:11:38.621Z,97558.78
2023-01-17T17:16:41.361Z,97557.31
2023-01-17T17:21:45.914Z,97563.03
2023-01-17T17:26:48.628Z,97555.94
2023-01-17T17:31:51.933Z,97561.81
2023-01-17T17:36:55.976Z,97566.78
2023-01-17T17:41:59.751Z,97563.03
2023-01-17T17:47:03.951Z,97571.91
2023-01-17T17:52:09.659Z,97570.72
2023-01-17T17:57:12.526Z,97570.28
2023-01-17T18:02:16.373Z,97572.03
2023-01-17T18:07:20.948Z,97569.03
2023-01-17T18:12:23.852Z,97571.53
2023-01-17T18:17:26.606Z,97590.81
2023-01-17T18:22:30.748Z,97602.53
2023-01-17T18:27:33.523Z,97600.22
2023-01-17T18:32:38.192Z,97604.03
2023-01-17T18:37:42.347Z,97602.97
2023-01-17T18:42:45.248Z,97597.84
2023-01-17T18:47:48.003Z,97598.47
2023-01-17T18:52:53.045Z,97597.88
2023-01-17T18:57:56.257Z,97599.78
2023-01-17T19:02:59.214Z,97606.66
2023-01-17T19:08:03.286Z,97604.59
2023-01-17T19:13:05.997Z,97615.94
2023-01-17T19:18:09.881Z,97613.25
2023-01-17T19:23:13.948Z,97622.88
2023-01-17T19:28:16.641Z,97622.16
2023-01-17T19:33:19.332Z,97627.19
2023-01-17T19:38:23.383Z,97631.69
2023-01-17T19:43:26.094Z,97630.97
2023-01-17T19:48:30.172Z,97627.38
2023-01-17T19:53:35.820Z,97631.56
2023-01-17T19:58:39.096Z,97633.78
2023-01-17T20:03:43.726Z,97626.59
2023-01-17T20:08:47.891Z,97638.06
2023-01-17T20:13:54.100Z,97639.13
2023-01-17T20:18:58.176Z,97643.94
2023-01-17T20:24:04.112Z,97651.56
2023-01-17T20:29:10.152Z,97642.94
2023-01-17T20:34:18.645Z,97643.72
2023-01-17T20:39:22.667Z,97647.34
2023-01-17T20:44:25.484Z,97649.56
2023-01-17T20:49:28.187Z,97670.94
2023-01-17T20:54:32.218Z,97673.13
2023-01-17T20:59:34.908Z,97669.19
2023-01-17T21:04:37.645Z,97682.22
2023-01-17T21:09:42.687Z,97679.47
2023-01-17T21:14:45.431Z,97689.41
2023-01-17T21:19:48.180Z,97697.47
2023-01-17T21:24:53.992Z,97687.25
2023-01-17T21:29:57.040Z,97689.50
2023-01-17T21:34:59.755Z,97685.97
2023-01-17T21:40:05.309Z,97681.22
2023-01-17T21:45:08.395Z,97675.81
2023-01-17T21:50:17.272Z,97671.59
2023-01-17T21:55:46.576Z,97675.06
2023-01-17T22:00:49.520Z,97684.91
2023-01-17T22:05:52.215Z,97679.53
2023-01-17T22:10:56.318Z,97682.88
2023-01-17T22:16:00.229Z,97678.41
2023-01-17T22:21:06.463Z,97696.47
2023-01-17T22:26:11.703Z,97695.81
2023-01-17T22:31:18.998Z,97695.00
2023-01-17T22:36:23.145Z,97694.44
2023-01-17T22:41:29.703Z,97704.91
2023-01-17T22:46:34.045Z,97708.44
2023-01-17T22:51:37.956Z,97717.56
2023-01-17T22:56:42.083Z,97713.00
2023-01-17T23:01:44.815Z,97709.34
2023-01-17T23:06:47.515Z,97711.91
2023-01-17T23:11:53.990Z,97693.50
2023-01-17T23:17:15.623Z,97699.34
2023-01-17T23:22:20.204Z,97707.34
2023-01-17T23:27:44.165Z,97702.53
2023-01-17T23:32:49.011Z,97704.50
2023-01-17T23:38:09.098Z,97694.72
2023-01-17T23:43:24.961Z,97692.91
2023-01-17T23:48:27.968Z,97682.63
2023-01-17T23:53:30.684Z,97678.00
2023-01-17T23:58:35.061Z,97664.97
